Flight Track Log - Related Links

Times and Time Zones

All times are in EDT time to prevent confusion due to time zone crossing. See the EMD21 flight status page for this flight to view local times or setup timezone preferences in your user account.

Time Position Orientation Groundspeed Altitude Reporting Facility
EDT Latitude Longitude Course Direction KTS MPH feet Rate Location/Type
Thu 08:35:54 PM 38.6500 -90.6833 247° West 134 154 1,300  Level Gateway (St. Louis) TRACON
Thu 08:37:00 PM 38.6333 -90.7333 247° West 157 181 2,700 1,161 Climbing Gateway (St. Louis) TRACON
Thu 08:38:29 PM 38.5975 -90.7967 234° Southwest 160 184 4,300 1,098 Climbing Kansas City Center
Thu 08:39:33 PM 38.5664 -90.8425 229° Southwest 169 194 5,500 1,048 Climbing Kansas City Center
Thu 08:40:35 PM 38.5339 -90.8883 228° Southwest 173 199 6,500 1,073 Climbing Kansas City Center
Thu 08:41:36 PM 38.5025 -90.9364 230° Southwest 175 201 7,700 1,008 Climbing Kansas City Center
Thu 08:42:40 PM 38.4697 -90.9806 227° Southwest 172 198 8,600 1,016 Climbing Kansas City Center
Thu 08:43:40 PM 38.4300 -91.0358 227° Southwest 174 200 9,800 1,091 Climbing Kansas City Center
Thu 08:44:41 PM 38.3981 -91.0825 229° Southwest 174 200 10,800 864 Climbing Kansas City Center
Thu 08:45:45 PM 38.3658 -91.1289 228° Southwest 175 201 11,600 857 Climbing Kansas City Center
Thu 08:46:47 PM 38.3342 -91.1775 230° Southwest 178 205 12,600 976 Climbing Kansas City Center
Thu 08:47:48 PM 38.3011 -91.2275 230° Southwest 182 209 13,600 960 Climbing Kansas City Center
Thu 08:48:52 PM 38.2619 -91.2867 230° Southwest 183 211 14,600 816 Climbing Kansas City Center
Thu 08:49:53 PM 38.2247 -91.3358 226° Southwest 188 216 15,300 689 Climbing Kansas City Center
Thu 08:50:54 PM 38.1889 -91.3856 227° Southwest 191 220 16,000 336 Climbing Kansas City Center
Thu 08:51:58 PM 38.1533 -91.4422 231° Southwest 197 227 16,000  Level Kansas City Center
Thu 08:52:59 PM 38.1089 -91.5050 228° Southwest 218 251 16,000 -49 Level Kansas City Center
Thu 08:54:00 PM 38.0647 -91.5650 227° Southwest 228 262 15,900  Descending Kansas City Center
Thu 08:55:04 PM 38.0142 -91.6367 228° Southwest 228 262 16,000 48 Climbing Kansas City Center
Thu 08:56:05 PM 37.9711 -91.6981 228° Southwest 229 264 16,000  Level Kansas City Center
Thu 08:57:09 PM 37.9281 -91.7589 228° Southwest 231 266 16,000  Level Kansas City Center
Thu 08:58:09 PM 37.8839 -91.8200 228° Southwest 234 269 16,000  Level Kansas City Center
Thu 08:59:10 PM 37.8417 -91.8803 228° Southwest 230 265 16,000  Level Kansas City Center
Thu 09:00:17 PM 37.7900 -91.9539 228° Southwest 231 266 16,000  Level Kansas City Center
Thu 09:01:18 PM 37.7464 -92.0144 228° Southwest 232 267 16,000  Level Kansas City Center
Thu 09:02:19 PM 37.7033 -92.0747 228° Southwest 230 265 16,000  Level Kansas City Center
Thu 09:03:23 PM 37.6639 -92.1331 230° Southwest 233 268 16,000  Level Kansas City Center
Thu 09:04:25 PM 37.6156 -92.1975 227° Southwest 234 269 16,000  Level Kansas City Center
Thu 09:05:25 PM 37.5719 -92.2586 228° Southwest 233 268 16,000  Level Kansas City Center
Thu 09:06:29 PM 37.5281 -92.3192 228° Southwest 233 268 16,000  Level Kansas City Center
Thu 09:07:31 PM 37.4850 -92.3789 228° Southwest 231 266 16,000  Level Kansas City Center
Thu 09:08:32 PM 37.4331 -92.4511 228° Southwest 230 265 16,000  Level Kansas City Center
Thu 09:09:32 PM 37.3897 -92.5122 228° Southwest 232 267 16,000  Level Kansas City Center
Thu 09:10:35 PM 37.3453 -92.5717 227° Southwest 233 268 16,000  Level Kansas City Center
Thu 09:11:36 PM 37.2992 -92.6314 226° Southwest 238 274 16,000  Level Kansas City Center
Thu 09:12:40 PM 37.2436 -92.6669 207° Southwest 229 264 16,000  Level Kansas City Center
Thu 09:13:41 PM 37.2042 -92.7311 232° Southwest 231 266 16,000  Level Kansas City Center
Thu 09:14:42 PM 37.1636 -92.7947 231° Southwest 232 267 16,000  Level Kansas City Center
Thu 09:15:45 PM 37.1169 -92.8525 225° Southwest 236 272 16,000  Level Kansas City Center
Thu 09:16:46 PM 37.0625 -92.9228 226° Southwest 234 269 16,000 -49 Level Kansas City Center
Thu 09:17:47 PM 37.0203 -92.9842 229° Southwest 232 267 15,900  Descending Kansas City Center
Thu 09:18:50 PM 36.9775 -93.0444 228° Southwest 231 266 16,000  Climbing Kansas City Center
Thu 09:19:54 PM 36.9331 -93.1044 227° Southwest 233 268 15,900  Descending Kansas City Center
Thu 09:20:54 PM 36.8900 -93.1619 227° Southwest 229 264 16,000 50 Climbing Kansas City Center
Thu 09:21:55 PM 36.8428 -93.2250 227° Southwest 227 261 16,000  Level Kansas City Center
Thu 09:22:56 PM 36.8008 -93.2836 228° Southwest 227 261 16,000  Level Kansas City Center
Thu 09:24:00 PM 36.7628 -93.3483 234° Southwest 229 264 16,000  Level Kansas City Center
Thu 09:25:01 PM 36.7272 -93.4153 236° Southwest 232 267 16,000  Level Kansas City Center
Thu 09:26:02 PM 36.6900 -93.4825 235° Southwest 236 272 16,000  Level Kansas City Center
Thu 09:27:03 PM 36.6536 -93.5500 236° Southwest 236 272 16,000  Level Kansas City Center
Thu 09:28:07 PM 36.6122 -93.6311 238° Southwest 233 268 16,000  Level Kansas City Center
Thu 09:29:09 PM 36.5778 -93.6992 238° Southwest 233 268 16,000  Level Kansas City Center
Thu 09:30:10 PM 36.5353 -93.7619 230° Southwest 235 270 16,000  Level Kansas City Center
Thu 09:31:11 PM 36.4911 -93.8186 226° Southwest 234 269 16,000  Level Kansas City Center
Thu 09:32:14 PM 36.4469 -93.8764 226° Southwest 232 267 16,000  Level Kansas City Center
Thu 09:33:15 PM 36.4019 -93.9353 226° Southwest 232 267 16,000  Level Kansas City Center
Thu 09:34:14 PM 36.3450 -94.0053 225° Southwest 237 273 16,000  Level Memphis Center
Thu 09:35:14 PM 36.3019 -94.0575 224° Southwest 237 273 16,000  Level Memphis Center
Thu 09:36:14 PM 36.2586 -94.1122 226° Southwest 237 273 16,000  Level Memphis Center
Thu 09:37:14 PM 36.2131 -94.1692 225° Southwest 237 273 16,000  Level Memphis Center
Thu 09:38:14 PM 36.1675 -94.2261 225° Southwest 237 273 16,000  Level Memphis Center

Login

Don't have an account? Register now (free) for customized features, flight alerts, and more!